Time;durP1;ratioP1;P1;durP2;ratioP2;P2;SDS_P1;SDS_P2;PMS_P1;PMS_P2;Temp;Humidity;BMP_temperature;BMP_pressure;BME280_temperature;BME280_humidity;BME280_pressure;Samples;Min_cycle;Max_cycle;Signal;HPM_P1;HPM_P2
2021/09/13 00:01:20;;;;;;;2.58;2.38;;;16.30;76.80;;;;;;5015786;28;20034;-70
2021/09/13 00:03:46;;;;;;;4.22;2.60;;;16.20;76.60;;;;;;5001431;28;21695;-70
2021/09/13 00:06:12;;;;;;;3.63;2.55;;;16.30;76.60;;;;;;5001052;28;20620;-70
2021/09/13 00:08:37;;;;;;;3.63;2.70;;;16.20;76.50;;;;;;5001577;28;20635;-70
2021/09/13 00:11:03;;;;;;;4.70;2.50;;;16.20;76.50;;;;;;5002122;28;20083;-71
2021/09/13 00:13:28;;;;;;;3.25;2.80;;;16.20;76.60;;;;;;4999931;28;20081;-70
2021/09/13 00:15:54;;;;;;;2.72;2.53;;;16.20;76.60;;;;;;5000770;28;20113;-71
2021/09/13 00:18:20;;;;;;;2.72;2.60;;;16.10;76.60;;;;;;5003062;28;20086;-70
2021/09/13 00:20:45;;;;;;;2.78;2.58;;;16.10;76.60;;;;;;5000090;28;20408;-70
2021/09/13 00:23:11;;;;;;;2.60;2.40;;;16.10;76.60;;;;;;5000454;28;20553;-70
2021/09/13 00:25:37;;;;;;;2.53;2.38;;;16.10;76.70;;;;;;5000615;28;20044;-70
2021/09/13 00:28:02;;;;;;;2.30;2.20;;;16.10;76.80;;;;;;5001414;28;20575;-70
2021/09/13 00:30:28;;;;;;;2.63;2.42;;;16.00;76.80;;;;;;5000512;28;20468;-70
2021/09/13 00:32:54;;;;;;;3.33;2.63;;;16.00;76.80;;;;;;5001851;28;20053;-70
2021/09/13 00:35:19;;;;;;;2.90;2.47;;;16.00;76.90;;;;;;5001742;28;20034;-71
2021/09/13 00:37:45;;;;;;;3.13;2.33;;;16.00;76.90;;;;;;5001613;28;20038;-71
2021/09/13 00:40:11;;;;;;;2.97;2.50;;;15.90;76.90;;;;;;5000219;28;20485;-70
2021/09/13 00:42:37;;;;;;;3.20;2.40;;;15.90;77.00;;;;;;4999398;28;20422;-70
2021/09/13 00:45:03;;;;;;;2.33;2.22;;;15.90;77.00;;;;;;5000996;28;20065;-71
2021/09/13 00:47:29;;;;;;;2.80;2.60;;;15.90;77.00;;;;;;5001157;28;20029;-70
2021/09/13 00:49:55;;;;;;;2.83;2.28;;;15.90;77.00;;;;;;5002912;28;20053;-71
2021/09/13 00:52:21;;;;;;;2.30;2.20;;;15.80;76.90;;;;;;4999980;28;20029;-71
2021/09/13 00:54:47;;;;;;;3.88;2.47;;;15.80;77.90;;;;;;4999369;28;20070;-70
2021/09/13 00:57:16;;;;;;;2.58;2.33;;;15.80;77.00;;;;;;5000250;28;20058;-70
2021/09/13 00:59:42;;;;;;;2.42;2.25;;;15.80;77.10;;;;;;4999947;28;20044;-71
2021/09/13 01:02:07;;;;;;;2.38;2.20;;;15.70;76.90;;;;;;4998085;28;20034;-70
2021/09/13 01:04:33;;;;;;;2.80;2.60;;;15.70;77.00;;;;;;4999693;28;20069;-70
2021/09/13 01:06:59;;;;;;;2.75;2.50;;;15.60;77.10;;;;;;4998427;28;20045;-70
2021/09/13 01:09:25;;;;;;;3.33;2.55;;;15.60;77.30;;;;;;5001519;28;20516;-70
2021/09/13 01:11:51;;;;;;;2.42;2.22;;;15.60;77.50;;;;;;4998736;28;20100;-71
2021/09/13 01:14:17;;;;;;;2.65;2.45;;;15.50;77.60;;;;;;5001417;28;20126;-70
2021/09/13 01:16:43;;;;;;;2.40;2.20;;;15.50;77.80;;;;;;4997592;28;20762;-70
2021/09/13 01:19:09;;;;;;;2.53;2.33;;;15.50;78.00;;;;;;4999712;28;20034;-70
2021/09/13 01:21:38;;;;;;;2.65;2.45;;;15.50;78.00;;;;;;4998585;28;20044;-70
2021/09/13 01:24:04;;;;;;;4.13;2.42;;;15.40;78.20;;;;;;4997774;28;20132;-70
2021/09/13 01:26:30;;;;;;;2.58;2.33;;;15.40;78.20;;;;;;4996374;28;20033;-70
2021/09/13 01:28:56;;;;;;;2.72;2.53;;;15.40;78.20;;;;;;4999128;28;20125;-70
2021/09/13 01:31:22;;;;;;;2.97;2.53;;;15.40;78.30;;;;;;4998081;28;20030;-70
2021/09/13 01:33:47;;;;;;;3.85;2.50;;;15.30;78.40;;;;;;4997141;28;20037;-70
2021/09/13 01:36:13;;;;;;;3.00;2.60;;;15.40;79.40;;;;;;4999081;28;20030;-70
2021/09/13 01:38:39;;;;;;;2.45;2.28;;;15.30;78.60;;;;;;4996178;28;20083;-71
2021/09/13 01:41:04;;;;;;;2.65;2.45;;;15.30;78.70;;;;;;4995221;28;20404;-70
2021/09/13 01:43:31;;;;;;;2.47;2.25;;;15.20;78.60;;;;;;4996504;28;20597;-70
2021/09/13 01:45:57;;;;;;;2.35;2.22;;;15.30;78.80;;;;;;4999555;28;20066;-70
2021/09/13 01:48:23;;;;;;;4.63;2.22;;;15.20;78.80;;;;;;4999698;28;20500;-70
2021/09/13 01:50:49;;;;;;;2.58;2.42;;;15.20;78.90;;;;;;5000443;28;20038;-70
2021/09/13 01:53:15;;;;;;;3.30;2.40;;;15.20;78.80;;;;;;4998830;28;20040;-70
2021/09/13 01:55:40;;;;;;;3.10;2.25;;;15.30;78.80;;;;;;4999200;28;20045;-70
2021/09/13 01:58:06;;;;;;;4.55;1.98;;;15.20;78.70;;;;;;4996204;28;20044;-70
2021/09/13 02:00:32;;;;;;;2.40;2.20;;;15.20;78.60;;;;;;4997373;28;20040;-69
2021/09/13 02:02:57;;;;;;;2.10;1.92;;;15.20;78.60;;;;;;4997680;28;20459;-70
2021/09/13 02:05:23;;;;;;;4.22;2.30;;;15.20;78.60;;;;;;4999453;28;20057;-70
2021/09/13 02:07:49;;;;;;;2.88;2.28;;;15.20;78.50;;;;;;4998064;28;20497;-70
2021/09/13 02:10:14;;;;;;;2.05;1.95;;;15.10;78.50;;;;;;4997148;28;20185;-70
2021/09/13 02:12:40;;;;;;;2.40;2.20;;;15.10;78.50;;;;;;4995093;28;22366;-70
2021/09/13 02:15:07;;;;;;;2.45;2.22;;;15.10;78.50;;;;;;4996213;28;20496;-70
2021/09/13 02:17:32;;;;;;;3.78;2.10;;;15.00;78.40;;;;;;4997331;28;20698;-70
2021/09/13 02:19:58;;;;;;;3.85;2.60;;;15.00;78.40;;;;;;4996157;28;20029;-72
2021/09/13 02:22:23;;;;;;;2.55;2.35;;;15.00;78.50;;;;;;4998216;28;20030;-70
2021/09/13 02:24:49;;;;;;;2.22;2.03;;;15.00;78.50;;;;;;5000355;28;20497;-70
2021/09/13 02:27:15;;;;;;;3.05;2.38;;;15.00;78.50;;;;;;4998123;28;20045;-70
2021/09/13 02:29:40;;;;;;;2.92;2.30;;;15.00;78.40;;;;;;4998865;28;20041;-70
2021/09/13 02:32:06;;;;;;;2.15;2.05;;;15.00;78.40;;;;;;4996137;28;20041;-69
2021/09/13 02:34:32;;;;;;;2.30;2.15;;;15.10;78.40;;;;;;4996394;28;20030;-70
2021/09/13 02:36:58;;;;;;;2.70;2.50;;;15.10;78.50;;;;;;4996685;28;20073;-70
2021/09/13 02:39:24;;;;;;;2.75;2.47;;;15.00;78.60;;;;;;4998992;28;20040;-70
2021/09/13 02:41:50;;;;;;;4.20;2.70;;;15.00;78.60;;;;;;4996669;28;20033;-70
2021/09/13 02:44:16;;;;;;;3.15;2.55;;;15.00;78.80;;;;;;4996219;28;20065;-70
2021/09/13 02:46:41;;;;;;;3.40;2.42;;;14.90;78.90;;;;;;4997275;28;20125;-69
2021/09/13 02:49:07;;;;;;;3.65;2.50;;;14.90;79.10;;;;;;4997723;28;20044;-70
2021/09/13 02:51:33;;;;;;;4.60;2.60;;;14.90;79.10;;;;;;5000316;28;20034;-71
2021/09/13 02:53:58;;;;;;;4.43;2.63;;;14.90;79.30;;;;;;4997710;28;20414;-69
2021/09/13 02:56:24;;;;;;;3.50;2.65;;;14.90;79.30;;;;;;4996018;28;20042;-70
2021/09/13 02:58:49;;;;;;;2.65;2.30;;;14.90;79.30;;;;;;4997218;28;20416;-70
2021/09/13 03:01:15;;;;;;;3.13;2.83;;;14.80;79.30;;;;;;4996661;28;20044;-71
2021/09/13 03:03:44;;;;;;;3.08;2.78;;;14.80;79.20;;;;;;4997320;28;20529;-69
2021/09/13 03:06:10;;;;;;;2.92;2.72;;;14.80;79.30;;;;;;4997145;28;20030;-70
2021/09/13 03:08:36;;;;;;;2.60;2.40;;;14.80;79.30;;;;;;4996504;28;20497;-70
2021/09/13 03:11:03;;;;;;;2.97;2.67;;;14.80;79.10;;;;;;4996411;28;20054;-71
2021/09/13 03:13:29;;;;;;;3.10;2.80;;;14.80;79.20;;;;;;4996192;28;20095;-70
2021/09/13 03:15:55;;;;;;;5.30;3.13;;;14.80;79.40;;;;;;4996613;28;20605;-69
2021/09/13 03:18:20;;;;;;;2.85;2.65;;;14.70;79.30;;;;;;5000576;28;20133;-70
2021/09/13 03:20:46;;;;;;;3.53;2.95;;;14.70;79.40;;;;;;4996049;28;20034;-69
2021/09/13 03:23:12;;;;;;;3.47;2.55;;;14.70;79.60;;;;;;4997269;28;20066;-70
2021/09/13 03:25:37;;;;;;;2.90;2.63;;;14.70;79.80;;;;;;4996898;28;20030;-68
2021/09/13 03:28:04;;;;;;;2.90;2.67;;;14.60;79.60;;;;;;5000478;28;20037;-70
2021/09/13 03:30:30;;;;;;;4.60;2.55;;;14.60;79.60;;;;;;4997661;28;20112;-69
2021/09/13 03:32:55;;;;;;;3.03;2.72;;;14.60;79.60;;;;;;4999751;28;20120;-70
2021/09/13 03:35:21;;;;;;;6.80;2.80;;;14.60;79.60;;;;;;4999956;28;20038;-70
2021/09/13 03:37:47;;;;;;;2.97;2.72;;;14.60;79.60;;;;;;5000294;28;20061;-70
2021/09/13 03:40:13;;;;;;;4.90;2.88;;;14.60;79.40;;;;;;5002586;28;20081;-69
2021/09/13 03:42:39;;;;;;;5.05;2.63;;;14.60;79.40;;;;;;5001916;28;20475;-70
2021/09/13 03:45:05;;;;;;;2.83;2.60;;;14.60;79.40;;;;;;5000934;28;20030;-70
2021/09/13 03:47:31;;;;;;;3.30;2.75;;;14.60;79.40;;;;;;5002211;28;20034;-70
2021/09/13 03:49:57;;;;;;;2.92;2.50;;;14.60;79.30;;;;;;5002025;28;20086;-71
2021/09/13 03:52:22;;;;;;;2.58;2.38;;;14.70;79.30;;;;;;4999759;28;20126;-70
2021/09/13 03:54:48;;;;;;;3.60;2.90;;;14.70;79.20;;;;;;5001179;28;20034;-70
2021/09/13 03:57:13;;;;;;;3.00;2.70;;;14.60;79.00;;;;;;5002431;28;20042;-70
2021/09/13 03:59:39;;;;;;;3.00;2.70;;;14.60;78.90;;;;;;5001091;28;20074;-71
2021/09/13 04:02:05;;;;;;;3.10;2.80;;;14.60;79.00;;;;;;5000537;28;20037;-70
2021/09/13 04:04:31;;;;;;;2.88;2.67;;;14.60;79.00;;;;;;5001469;28;20053;-71
2021/09/13 04:11:58;;;;;;;3.05;2.75;;;14.60;78.90;;;;;;5001976;28;20050;-70
2021/09/13 04:14:29;;;;;;;3.00;2.80;;;14.50;78.90;;;;;;4999467;28;20033;-70
2021/09/13 04:16:56;;;;;;;3.20;2.90;;;14.50;79.10;;;;;;5002119;28;20500;-70
2021/09/13 04:19:23;;;;;;;3.10;2.80;;;14.50;79.00;;;;;;5002244;28;20076;-71
2021/09/13 04:21:50;;;;;;;3.70;2.70;;;14.40;79.00;;;;;;4999173;28;20513;-70
2021/09/13 04:24:16;;;;;;;3.00;2.80;;;14.40;79.10;;;;;;4999840;28;20068;-70
2021/09/13 04:26:42;;;;;;;2.85;2.65;;;14.40;79.10;;;;;;4999806;28;20065;-70
2021/09/13 04:29:09;;;;;;;3.08;2.88;;;14.40;79.20;;;;;;5003067;28;20052;-69
2021/09/13 04:31:35;;;;;;;7.65;3.20;;;14.30;79.30;;;;;;5005000;28;20092;-70
2021/09/13 04:34:01;;;;;;;3.15;2.83;;;14.30;79.40;;;;;;5000088;28;20046;-70
2021/09/13 04:36:26;;;;;;;3.78;3.47;;;14.30;79.50;;;;;;4997715;28;20041;-70
2021/09/13 04:38:52;;;;;;;3.33;3.03;;;14.30;79.60;;;;;;5000848;28;20041;-71
2021/09/13 04:41:18;;;;;;;3.97;3.15;;;14.30;79.80;;;;;;5000295;28;20503;-70
2021/09/13 04:43:44;;;;;;;4.70;3.00;;;14.30;80.00;;;;;;5004068;28;20036;-70
2021/09/13 04:46:09;;;;;;;3.75;2.85;;;14.30;80.10;;;;;;5001565;28;20437;-71
2021/09/13 04:48:35;;;;;;;3.72;2.97;;;14.20;80.10;;;;;;5000434;28;20030;-69
2021/09/13 04:51:01;;;;;;;3.15;2.67;;;14.30;80.20;;;;;;4996982;28;20103;-69
2021/09/13 04:53:26;;;;;;;3.30;2.78;;;14.30;80.30;;;;;;5000596;28;20275;-70
2021/09/13 04:55:52;;;;;;;3.85;3.00;;;14.40;80.30;;;;;;5000512;28;20136;-70
2021/09/13 04:58:17;;;;;;;4.18;3.00;;;14.40;80.30;;;;;;5000171;28;20031;-72
2021/09/13 05:00:43;;;;;;;3.03;2.72;;;14.50;80.20;;;;;;4999888;28;20045;-69
2021/09/13 05:03:08;;;;;;;3.03;2.72;;;14.50;80.20;;;;;;4999537;28;20108;-70
2021/09/13 05:05:34;;;;;;;4.53;2.97;;;14.50;80.20;;;;;;4999449;28;20671;-70
2021/09/13 05:08:00;;;;;;;5.15;3.03;;;14.60;80.20;;;;;;5001038;28;20405;-70
2021/09/13 05:10:25;;;;;;;4.40;3.10;;;14.60;80.30;;;;;;4999092;28;20030;-70
2021/09/13 05:12:51;;;;;;;3.20;2.90;;;14.60;80.40;;;;;;4997484;28;20038;-70
2021/09/13 05:15:17;;;;;;;4.85;3.20;;;14.60;80.40;;;;;;5000016;28;20041;-70
2021/09/13 05:17:43;;;;;;;3.22;2.95;;;14.70;80.60;;;;;;5003701;28;20041;-69
2021/09/13 05:20:10;;;;;;;3.70;3.13;;;14.70;80.50;;;;;;5001322;28;20038;-70
2021/09/13 05:22:36;;;;;;;3.47;3.03;;;14.80;80.50;;;;;;4998077;28;20041;-69
2021/09/13 05:25:03;;;;;;;3.33;3.00;;;14.80;80.50;;;;;;4996807;28;20038;-70
2021/09/13 05:27:28;;;;;;;4.53;3.08;;;14.80;80.60;;;;;;4997777;28;20044;-70
2021/09/13 05:29:54;;;;;;;6.25;3.17;;;14.90;80.50;;;;;;4999350;28;20432;-70
2021/09/13 05:32:19;;;;;;;10.07;4.70;;;14.90;80.40;;;;;;4998340;28;20034;-70
2021/09/13 05:34:45;;;;;;;7.80;5.07;;;14.90;80.30;;;;;;4997546;28;20404;-70
2021/09/13 05:37:11;;;;;;;10.77;4.75;;;14.90;80.10;;;;;;4999614;28;21047;-69
2021/09/13 05:39:37;;;;;;;14.60;3.40;;;15.00;80.10;;;;;;4998138;28;20492;-69
2021/09/13 05:42:03;;;;;;;12.13;3.35;;;15.00;80.00;;;;;;4998194;28;20902;-68
2021/09/13 05:44:29;;;;;;;13.40;3.40;;;15.00;79.80;;;;;;4998950;28;20728;-69
2021/09/13 05:46:55;;;;;;;8.95;3.15;;;15.00;79.80;;;;;;4999600;28;20084;-69
2021/09/13 05:49:20;;;;;;;10.60;3.50;;;15.10;79.80;;;;;;4997169;28;20505;-70
2021/09/13 05:51:50;;;;;;;7.57;3.08;;;15.10;79.70;;;;;;4997563;28;20038;-69
2021/09/13 05:54:21;;;;;;;4.80;3.30;;;15.10;79.80;;;;;;4996729;28;20040;-70
2021/09/13 05:56:49;;;;;;;7.28;3.40;;;15.10;79.90;;;;;;4996971;28;20140;-70
2021/09/13 05:59:19;;;;;;;9.30;3.55;;;15.00;79.80;;;;;;5003088;28;20446;-70
2021/09/13 06:01:44;;;;;;;8.63;3.53;;;15.00;79.90;;;;;;4999566;28;20041;-70
2021/09/13 06:04:10;;;;;;;11.68;3.60;;;15.00;80.00;;;;;;4996467;28;20049;-70
2021/09/13 06:06:35;;;;;;;10.15;3.50;;;15.00;80.20;;;;;;4999595;28;20022;-70
2021/09/13 06:09:01;;;;;;;6.65;3.22;;;14.90;80.20;;;;;;5000604;28;20030;-71
2021/09/13 06:11:27;;;;;;;12.23;4.05;;;14.90;80.30;;;;;;5000659;28;20038;-71
2021/09/13 06:13:56;;;;;;;8.38;3.63;;;14.90;80.50;;;;;;4999563;28;20184;-70
2021/09/13 06:16:22;;;;;;;10.15;3.92;;;14.90;81.60;;;;;;5000225;28;20030;-70
2021/09/13 06:18:47;;;;;;;16.77;4.10;;;14.90;80.60;;;;;;4999917;28;20060;-70
2021/09/13 06:21:13;;;;;;;10.57;4.10;;;14.90;80.60;;;;;;5000107;28;20494;-69
2021/09/13 06:23:39;;;;;;;13.32;4.03;;;15.00;80.90;;;;;;4999639;28;20040;-70
2021/09/13 06:26:04;;;;;;;6.10;3.92;;;15.00;81.00;;;;;;5000118;28;20030;-69
2021/09/13 06:28:30;;;;;;;9.05;4.63;;;15.00;81.10;;;;;;4999379;28;20022;-69
2021/09/13 06:30:56;;;;;;;9.52;5.15;;;15.00;81.10;;;;;;5000146;28;20025;-69
2021/09/13 06:33:22;;;;;;;13.20;4.90;;;15.10;81.30;;;;;;4999437;28;20038;-69
2021/09/13 06:35:47;;;;;;;12.93;5.20;;;15.10;81.50;;;;;;5000263;28;20041;-70
2021/09/13 06:38:13;;;;;;;10.77;5.22;;;15.20;81.70;;;;;;4999740;28;20041;-70
2021/09/13 06:40:39;;;;;;;10.35;4.65;;;15.20;81.70;;;;;;4999690;28;20556;-71
2021/09/13 06:43:06;;;;;;;10.13;4.90;;;15.30;81.80;;;;;;4999764;28;20173;-69
2021/09/13 06:45:40;;;;;;;10.05;5.03;;;15.40;82.00;;;;;;5001288;28;20540;-70
2021/09/13 06:48:07;;;;;;;8.38;5.35;;;15.40;82.10;;;;;;4998261;28;20034;-69
2021/09/13 06:50:33;;;;;;;7.47;5.90;;;15.50;82.10;;;;;;4999727;28;20035;-70
2021/09/13 06:52:58;;;;;;;6.47;5.70;;;15.60;82.00;;;;;;5000273;28;20508;-70
2021/09/13 06:55:24;;;;;;;6.25;5.03;;;15.70;82.00;;;;;;5001074;28;20121;-70
2021/09/13 06:57:50;;;;;;;6.47;5.40;;;15.70;82.00;;;;;;5006082;28;20046;-70
2021/09/13 07:00:18;;;;;;;5.68;5.18;;;15.80;82.90;;;;;;5000688;28;20467;-69
2021/09/13 07:02:45;;;;;;;6.18;5.55;;;15.90;82.00;;;;;;4999113;28;20045;-70
2021/09/13 07:05:11;;;;;;;6.25;5.60;;;16.00;82.00;;;;;;5003859;28;20038;-70
2021/09/13 07:07:38;;;;;;;5.78;5.18;;;16.00;82.00;;;;;;5002952;28;20517;-71
2021/09/13 07:10:06;;;;;;;7.88;6.40;;;16.10;82.00;;;;;;5003858;28;20512;-70
2021/09/13 07:12:33;;;;;;;7.20;6.25;;;16.20;81.90;;;;;;5001885;28;20172;-70
2021/09/13 07:14:59;;;;;;;6.13;5.53;;;16.20;81.90;;;;;;5003368;28;20034;-69
2021/09/13 07:17:24;;;;;;;6.65;5.97;;;16.30;81.90;;;;;;5003866;28;20045;-71
2021/09/13 07:19:51;;;;;;;6.95;5.90;;;16.30;81.80;;;;;;5001787;28;20088;-70
2021/09/13 07:22:18;;;;;;;6.15;5.55;;;16.40;81.80;;;;;;5002879;28;20156;-71
2021/09/13 07:24:44;;;;;;;5.93;5.35;;;16.50;81.80;;;;;;5005768;28;20270;-71
2021/09/13 07:27:11;;;;;;;6.15;5.53;;;16.50;81.70;;;;;;5000777;28;20042;-70
2021/09/13 07:29:38;;;;;;;6.18;5.43;;;16.50;81.50;;;;;;5003632;28;20034;-69
2021/09/13 07:32:04;;;;;;;6.97;6.05;;;16.60;81.50;;;;;;5004068;28;20046;-69
2021/09/13 07:34:30;;;;;;;6.07;5.47;;;16.60;81.70;;;;;;5001401;28;20091;-69
2021/09/13 07:36:56;;;;;;;7.22;6.47;;;16.70;81.70;;;;;;5003573;28;20111;-70
2021/09/13 07:39:27;;;;;;;6.47;5.88;;;16.70;81.60;;;;;;5003339;28;20030;-70
2021/09/13 07:41:52;;;;;;;7.07;6.38;;;16.80;81.40;;;;;;5003463;28;20080;-69
2021/09/13 07:44:18;;;;;;;6.78;5.97;;;16.90;81.20;;;;;;5001209;28;20037;-70
2021/09/13 07:46:44;;;;;;;6.53;5.82;;;16.90;81.20;;;;;;5002983;28;20512;-70
2021/09/13 07:49:10;;;;;;;6.45;5.75;;;17.00;81.00;;;;;;5003552;28;20562;-70
2021/09/13 07:51:36;;;;;;;7.53;6.65;;;17.10;80.80;;;;;;5003721;28;20054;-70
2021/09/13 07:54:01;;;;;;;7.35;6.40;;;17.20;80.70;;;;;;5002811;28;20578;-70
2021/09/13 07:56:27;;;;;;;8.60;6.57;;;17.20;80.60;;;;;;5002190;28;20037;-70
2021/09/13 07:58:54;;;;;;;6.88;6.18;;;17.30;80.70;;;;;;5004305;28;20038;-69
2021/09/13 08:01:20;;;;;;;7.35;6.65;;;17.30;80.80;;;;;;5002820;28;20042;-71
2021/09/13 08:03:45;;;;;;;6.72;6.05;;;17.40;81.00;;;;;;5001817;28;20125;-70
2021/09/13 08:06:11;;;;;;;6.85;6.25;;;17.50;80.90;;;;;;5002774;28;20030;-67
2021/09/13 08:08:36;;;;;;;7.80;6.07;;;17.50;80.70;;;;;;5000953;28;20081;-71
2021/09/13 08:11:03;;;;;;;7.10;6.38;;;17.60;80.60;;;;;;5003352;28;20041;-68
2021/09/13 08:13:29;;;;;;;7.38;6.65;;;17.60;80.60;;;;;;5001176;28;20034;-69
2021/09/13 08:15:54;;;;;;;8.38;7.47;;;17.70;80.80;;;;;;5002558;28;20049;-68
2021/09/13 08:18:20;;;;;;;8.40;7.30;;;17.80;80.80;;;;;;5001736;28;20125;-68
2021/09/13 08:20:46;;;;;;;10.32;7.72;;;17.80;80.80;;;;;;5000857;28;20041;-68
2021/09/13 08:23:11;;;;;;;7.80;7.00;;;18.00;80.80;;;;;;5002072;28;20050;-67
2021/09/13 08:25:37;;;;;;;7.97;7.18;;;18.00;80.60;;;;;;4999543;28;20037;-68
2021/09/13 08:28:03;;;;;;;8.10;7.10;;;18.10;80.60;;;;;;5003092;28;20038;-67
2021/09/13 08:30:29;;;;;;;10.10;8.45;;;18.20;80.60;;;;;;5001798;28;20041;-68
2021/09/13 08:32:54;;;;;;;9.20;8.30;;;18.30;80.50;;;;;;5002547;28;20456;-68
2021/09/13 08:35:20;;;;;;;8.45;7.63;;;18.40;80.30;;;;;;5000951;28;20037;-68
2021/09/13 08:37:46;;;;;;;8.27;7.47;;;18.50;80.10;;;;;;5000650;28;20128;-68
2021/09/13 08:40:12;;;;;;;7.97;7.18;;;18.60;80.00;;;;;;4998585;28;20038;-66
2021/09/13 08:42:46;;;;;;;8.43;7.50;;;18.70;79.90;;;;;;4998873;28;20037;-69
2021/09/13 08:45:27;;;;;;;8.63;7.80;;;18.80;79.60;;;;;;4999993;28;20030;-68
2021/09/13 08:48:04;;;;;;;9.55;8.30;;;18.90;79.40;;;;;;5001607;28;20477;-68
2021/09/13 08:53:19;;;;;;;8.90;8.02;;;19.10;79.20;;;;;;4981763;28;20037;-68
2021/09/13 08:55:45;;;;;;;9.57;8.63;;;19.20;79.10;;;;;;5001082;28;20504;-68
2021/09/13 08:58:22;;;;;;;9.70;8.50;;;19.30;79.10;;;;;;5001644;28;20034;-68
2021/09/13 09:00:49;;;;;;;10.00;9.00;;;19.40;78.90;;;;;;5001818;28;20584;-68
2021/09/13 09:03:19;;;;;;;9.45;8.45;;;19.50;78.90;;;;;;4991376;28;20093;-67
2021/09/13 09:05:50;;;;;;;10.80;8.75;;;19.60;78.80;;;;;;4997020;28;20117;-68
2021/09/13 09:08:30;;;;;;;8.93;8.00;;;19.70;79.40;;;;;;4995566;28;20038;-68
2021/09/13 09:10:58;;;;;;;8.77;7.90;;;19.80;78.30;;;;;;4995769;28;20030;-69
2021/09/13 09:13:26;;;;;;;9.40;8.40;;;19.90;78.00;;;;;;4995538;28;20508;-68
2021/09/13 09:15:58;;;;;;;9.48;8.52;;;20.00;77.90;;;;;;4996384;28;20060;-67
2021/09/13 09:18:36;;;;;;;8.55;7.65;;;20.10;77.60;;;;;;4997490;28;20164;-67
2021/09/13 09:21:01;;;;;;;8.38;7.57;;;20.20;77.70;;;;;;4995340;28;20050;-69
2021/09/13 09:23:28;;;;;;;8.38;7.57;;;20.30;77.50;;;;;;4996202;28;20121;-67
2021/09/13 09:25:54;;;;;;;9.32;7.55;;;20.40;77.10;;;;;;4993869;28;20049;-68
2021/09/13 09:28:21;;;;;;;8.35;7.55;;;20.50;76.80;;;;;;4996362;28;20125;-67
2021/09/13 09:30:51;;;;;;;8.48;7.68;;;20.60;77.40;;;;;;4996705;28;20045;-68
2021/09/13 09:33:19;;;;;;;9.07;8.18;;;20.70;76.30;;;;;;4997267;28;20112;-68
2021/09/13 09:35:49;;;;;;;8.27;7.50;;;20.70;76.00;;;;;;4996675;28;20941;-67
2021/09/13 09:38:43;;;;;;;7.55;6.57;;;20.80;75.70;;;;;;4996311;28;20034;-68
2021/09/13 09:41:10;;;;;;;6.97;6.13;;;20.90;75.40;;;;;;4994959;28;20496;-68
2021/09/13 09:44:03;;;;;;;6.78;6.18;;;21.00;75.80;;;;;;4995841;28;20041;-67
2021/09/13 09:46:38;;;;;;;6.25;5.68;;;21.00;75.40;;;;;;5000489;28;20049;-68
2021/09/13 09:49:22;;;;;;;6.97;6.25;;;21.20;74.90;;;;;;4998923;28;20041;-68
2021/09/13 09:51:54;;;;;;;6.50;5.90;;;21.30;74.30;;;;;;4997258;28;20044;-68
2021/09/13 09:54:21;;;;;;;6.47;5.85;;;21.40;73.70;;;;;;4997534;28;20062;-67
2021/09/13 09:57:02;;;;;;;6.88;5.82;;;21.40;73.50;;;;;;4997201;28;20038;-68
2021/09/13 09:59:39;;;;;;;7.22;6.53;;;21.50;73.90;;;;;;4999167;28;20046;-67
2021/09/13 10:02:12;;;;;;;8.50;6.68;;;21.60;73.30;;;;;;4998560;28;20034;-67
2021/09/13 10:04:38;;;;;;;6.75;6.15;;;21.70;72.50;;;;;;4998712;28;20039;-68
2021/09/13 10:07:04;;;;;;;6.18;5.47;;;21.70;73.10;;;;;;4999147;28;20492;-68
2021/09/13 10:09:34;;;;;;;8.52;6.15;;;21.80;73.20;;;;;;4998505;28;20128;-68
2021/09/13 10:12:04;;;;;;;6.32;5.15;;;21.90;72.90;;;;;;5000056;28;20505;-69
2021/09/13 10:14:32;;;;;;;8.93;5.88;;;22.00;73.00;;;;;;4999347;28;20054;-68
2021/09/13 10:16:57;;;;;;;7.82;6.32;;;22.10;72.80;;;;;;4999995;28;20037;-68
2021/09/13 10:19:24;;;;;;;6.40;5.70;;;22.20;72.70;;;;;;4999423;28;20037;-69
2021/09/13 10:21:51;;;;;;;6.07;5.47;;;22.30;72.30;;;;;;4999246;28;20457;-68
2021/09/13 10:24:44;;;;;;;6.18;5.57;;;22.40;72.30;;;;;;4998622;28;20117;-68
2021/09/13 10:27:17;;;;;;;6.32;5.80;;;22.50;72.70;;;;;;4995923;28;20034;-68
2021/09/13 10:29:43;;;;;;;6.38;5.78;;;22.60;71.60;;;;;;5000107;28;20030;-66
2021/09/13 10:32:13;;;;;;;7.15;5.40;;;22.70;71.60;;;;;;4998728;28;20057;-68
2021/09/13 10:34:41;;;;;;;6.78;5.70;;;22.80;71.10;;;;;;5000584;28;20049;-68
2021/09/13 10:37:15;;;;;;;8.27;5.82;;;22.90;70.70;;;;;;4998856;28;20042;-68
2021/09/13 10:39:58;;;;;;;6.00;5.50;;;23.00;70.40;;;;;;5001180;28;20587;-68
2021/09/13 10:42:42;;;;;;;5.75;5.25;;;23.00;70.20;;;;;;5014176;28;20059;-70
2021/09/13 10:45:22;;;;;;;6.35;5.75;;;23.10;69.60;;;;;;4999817;28;20542;-68
2021/09/13 10:47:57;;;;;;;6.47;5.88;;;23.20;69.20;;;;;;5000643;28;20030;-68
2021/09/13 10:50:27;;;;;;;;;;;23.20;69.10;;;;;;4999826;28;20126;-69
2021/09/13 10:52:55;;;;;;;6.20;5.18;;;23.30;70.00;;;;;;4997480;28;19997;-68
2021/09/13 10:55:22;;;;;;;5.78;4.90;;;23.30;69.70;;;;;;4999172;28;20465;-68
2021/09/13 10:57:56;;;;;;;8.55;5.53;;;23.40;69.70;;;;;;4998252;28;20236;-70
2021/09/13 11:00:42;;;;;;;5.28;4.85;;;23.40;68.70;;;;;;4998812;28;20500;-72
2021/09/13 11:03:23;;;;;;;6.55;5.25;;;23.50;68.60;;;;;;4992254;28;20117;-71
2021/09/13 11:06:17;;;;;;;6.07;5.35;;;23.60;68.10;;;;;;4978255;28;20035;-71
2021/09/13 11:08:44;;;;;;;5.88;5.38;;;23.70;68.00;;;;;;4983369;28;20033;-68
2021/09/13 11:11:15;;;;;;;5.60;5.03;;;23.70;68.20;;;;;;5001437;28;20045;-68
2021/09/13 11:13:45;;;;;;;6.40;4.63;;;23.80;67.20;;;;;;4998329;28;20034;-69
2021/09/13 11:16:16;;;;;;;5.65;5.15;;;23.80;67.70;;;;;;4998457;28;20038;-71
2021/09/13 11:18:44;;;;;;;6.63;5.20;;;23.90;66.70;;;;;;4998516;28;20432;-70
2021/09/13 11:21:24;;;;;;;4.68;4.28;;;23.90;67.30;;;;;;4998652;28;20025;-68
2021/09/13 11:23:50;;;;;;;5.28;4.20;;;24.00;66.60;;;;;;4999601;28;20041;-69
2021/09/13 11:26:18;;;;;;;4.68;4.25;;;24.00;67.30;;;;;;4998504;28;20030;-71
2021/09/13 11:29:13;;;;;;;5.32;4.38;;;24.10;66.90;;;;;;4998094;28;20452;-71
2021/09/13 11:31:46;;;;;;;4.47;4.10;;;24.20;65.50;;;;;;4996990;28;20035;-70
2021/09/13 11:34:15;;;;;;;4.38;3.97;;;24.20;65.80;;;;;;4999021;28;20800;-71
2021/09/13 11:37:03;;;;;;;4.97;4.47;;;24.30;65.00;;;;;;4998915;28;20125;-70
2021/09/13 11:39:32;;;;;;;5.10;4.20;;;24.40;64.00;;;;;;4998384;28;20451;-70
2021/09/13 11:41:57;;;;;;;4.53;4.10;;;24.40;64.10;;;;;;4999015;28;20424;-70
2021/09/13 11:44:23;;;;;;;4.05;3.75;;;24.40;63.80;;;;;;4997275;28;20049;-71
2021/09/13 11:47:01;;;;;;;3.88;3.58;;;24.40;63.40;;;;;;4999365;28;20041;-70
2021/09/13 11:49:29;;;;;;;3.80;3.50;;;24.40;63.00;;;;;;5002158;28;20030;-70
2021/09/13 11:52:05;;;;;;;4.93;3.35;;;24.40;65.00;;;;;;5001523;28;20873;-70
2021/09/13 11:54:33;;;;;;;3.67;2.75;;;24.50;63.30;;;;;;5000954;28;20030;-68
2021/09/13 11:56:59;;;;;;;3.35;2.60;;;24.60;63.20;;;;;;5001892;28;20453;-70
2021/09/13 11:59:25;;;;;;;2.88;2.58;;;24.60;62.60;;;;;;5001998;28;20080;-71
2021/09/13 12:01:58;;;;;;;4.68;3.10;;;24.70;62.10;;;;;;5001656;28;20030;-68
2021/09/13 12:04:25;;;;;;;4.28;3.45;;;24.70;61.30;;;;;;5001132;28;20038;-70
2021/09/13 12:07:08;;;;;;;4.05;3.65;;;24.80;61.00;;;;;;5001315;28;20099;-70
2021/09/13 12:09:36;;;;;;;4.07;3.05;;;24.90;59.80;;;;;;5002069;28;20038;-70
2021/09/13 12:12:02;;;;;;;3.35;3.05;;;24.90;60.60;;;;;;5002392;28;20081;-71
2021/09/13 12:14:29;;;;;;;3.53;2.97;;;25.00;60.40;;;;;;5002426;28;20669;-70
2021/09/13 12:17:05;;;;;;;4.00;2.63;;;25.10;60.50;;;;;;5001513;28;20041;-70
2021/09/13 12:19:30;;;;;;;3.03;2.63;;;25.20;59.50;;;;;;5000782;28;20038;-70
2021/09/13 12:22:03;;;;;;;2.45;2.30;;;25.30;59.70;;;;;;5001929;28;20034;-69
2021/09/13 12:24:29;;;;;;;4.40;2.67;;;25.20;58.70;;;;;;5001129;28;20038;-70
2021/09/13 12:26:56;;;;;;;3.50;2.47;;;25.40;59.60;;;;;;5016258;28;20027;-70
2021/09/13 12:29:21;;;;;;;6.35;2.85;;;25.40;59.20;;;;;;5002002;28;20125;-67
2021/09/13 12:31:47;;;;;;;3.80;3.28;;;25.50;59.00;;;;;;5002471;28;20113;-71
2021/09/13 12:34:12;;;;;;;3.10;2.63;;;25.60;58.70;;;;;;5000373;28;20360;-68
2021/09/13 12:36:38;;;;;;;4.28;3.17;;;25.60;58.90;;;;;;5001195;28;20536;-70
2021/09/13 12:39:08;;;;;;;2.40;2.20;;;25.60;58.50;;;;;;5002358;28;20321;-68
2021/09/13 12:41:41;;;;;;;3.97;2.53;;;25.60;57.50;;;;;;5001548;28;20042;-68
2021/09/13 12:44:12;;;;;;;8.52;3.03;;;25.70;58.10;;;;;;5001556;28;20045;-68
2021/09/13 12:46:57;;;;;;;2.80;2.60;;;25.70;57.60;;;;;;5000859;28;20113;-69
2021/09/13 12:49:24;;;;;;;;;;;25.70;57.30;;;;;;5003216;28;20027;-69
2021/09/13 12:51:58;;;;;;;3.22;2.33;;;25.80;59.10;;;;;;5002195;28;19917;-68
2021/09/13 12:54:32;;;;;;;2.55;2.35;;;25.80;56.40;;;;;;5000280;28;20121;-68
2021/09/13 12:56:58;;;;;;;2.88;2.60;;;25.80;56.20;;;;;;5001225;28;20030;-68